sensor_id;sensor_type;location;lat;lon;timestamp;pressure;altitude;pressure_sealevel;temperature
16956;BMP180;8594;52.052;8.354;2023-06-22T07:36:43;100895.00;;;26.30
16956;BMP180;8594;52.052;8.354;2023-06-22T07:39:11;100886.00;;;26.20
16956;BMP180;8594;52.052;8.354;2023-06-22T07:41:39;100900.00;;;26.30
16956;BMP180;8594;52.052;8.354;2023-06-22T07:44:06;100907.00;;;26.40
16956;BMP180;8594;52.052;8.354;2023-06-22T07:46:33;100910.00;;;26.20
16956;BMP180;8594;52.052;8.354;2023-06-22T07:49:01;100899.00;;;26.40
16956;BMP180;8594;52.052;8.354;2023-06-22T07:51:28;100903.00;;;26.20
16956;BMP180;8594;52.052;8.354;2023-06-22T07:53:56;100900.00;;;26.10
16956;BMP180;8594;52.052;8.354;2023-06-22T07:56:23;100898.00;;;26.30
16956;BMP180;8594;52.052;8.354;2023-06-22T07:58:49;100893.00;;;26.40
16956;BMP180;8594;52.052;8.354;2023-06-22T08:01:17;100894.00;;;26.40
16956;BMP180;8594;52.052;8.354;2023-06-22T08:03:47;100890.00;;;26.30
16956;BMP180;8594;52.052;8.354;2023-06-22T08:06:14;100879.00;;;26.40
16956;BMP180;8594;52.052;8.354;2023-06-22T08:08:42;100880.00;;;26.40
16956;BMP180;8594;52.052;8.354;2023-06-22T08:11:10;100875.00;;;26.60
16956;BMP180;8594;52.052;8.354;2023-06-22T08:13:37;100882.00;;;26.60
16956;BMP180;8594;52.052;8.354;2023-06-22T08:16:04;100888.00;;;26.80
16956;BMP180;8594;52.052;8.354;2023-06-22T08:18:33;100877.00;;;26.40
16956;BMP180;8594;52.052;8.354;2023-06-22T08:20:59;100884.00;;;27.00
16956;BMP180;8594;52.052;8.354;2023-06-22T08:23:26;100883.00;;;26.70
16956;BMP180;8594;52.052;8.354;2023-06-22T08:25:53;100878.00;;;26.90
16956;BMP180;8594;52.052;8.354;2023-06-22T08:28:22;100875.00;;;27.20
16956;BMP180;8594;52.052;8.354;2023-06-22T08:30:49;100880.00;;;27.00
16956;BMP180;8594;52.052;8.354;2023-06-22T08:33:15;100872.00;;;27.40
16956;BMP180;8594;52.052;8.354;2023-06-22T08:35:43;100869.00;;;27.40
16956;BMP180;8594;52.052;8.354;2023-06-22T08:38:10;100866.00;;;27.90
16956;BMP180;8594;52.052;8.354;2023-06-22T08:40:41;100867.00;;;27.90
16956;BMP180;8594;52.052;8.354;2023-06-22T08:43:07;100862.00;;;27.90
16956;BMP180;8594;52.052;8.354;2023-06-22T08:45:36;100856.00;;;27.80
16956;BMP180;8594;52.052;8.354;2023-06-22T08:48:03;100867.00;;;28.10
16956;BMP180;8594;52.052;8.354;2023-06-22T08:50:30;100852.00;;;28.00
16956;BMP180;8594;52.052;8.354;2023-06-22T08:52:56;100862.00;;;28.20
16956;BMP180;8594;52.052;8.354;2023-06-22T08:55:23;100856.00;;;27.80
16956;BMP180;8594;52.052;8.354;2023-06-22T08:57:50;100851.00;;;28.30
16956;BMP180;8594;52.052;8.354;2023-06-22T09:00:18;100850.00;;;28.50
16956;BMP180;8594;52.052;8.354;2023-06-22T09:02:48;100844.00;;;28.10
16956;BMP180;8594;52.052;8.354;2023-06-22T09:05:15;100837.00;;;28.50
16956;BMP180;8594;52.052;8.354;2023-06-22T09:07:42;100827.00;;;28.60
16956;BMP180;8594;52.052;8.354;2023-06-22T09:10:10;100822.00;;;28.60
16956;BMP180;8594;52.052;8.354;2023-06-22T09:12:36;100819.00;;;28.60
16956;BMP180;8594;52.052;8.354;2023-06-22T09:15:05;100820.00;;;28.60
16956;BMP180;8594;52.052;8.354;2023-06-22T09:17:33;100814.00;;;28.90
16956;BMP180;8594;52.052;8.354;2023-06-22T09:20:03;100812.00;;;29.00
16956;BMP180;8594;52.052;8.354;2023-06-22T09:36:31;100812.00;;;29.90
16956;BMP180;8594;52.052;8.354;2023-06-22T09:38:58;100807.00;;;30.40
16956;BMP180;8594;52.052;8.354;2023-06-22T09:41:25;100804.00;;;30.30
16956;BMP180;8594;52.052;8.354;2023-06-22T09:43:51;100794.00;;;30.30
16956;BMP180;8594;52.052;8.354;2023-06-22T09:46:18;100791.00;;;30.10
16956;BMP180;8594;52.052;8.354;2023-06-22T09:48:47;100781.00;;;30.30
16956;BMP180;8594;52.052;8.354;2023-06-22T09:51:14;100790.00;;;30.20
16956;BMP180;8594;52.052;8.354;2023-06-22T09:53:42;100785.00;;;30.60
16956;BMP180;8594;52.052;8.354;2023-06-22T09:56:09;100792.00;;;30.50
16956;BMP180;8594;52.052;8.354;2023-06-22T09:58:40;100783.00;;;30.60
16956;BMP180;8594;52.052;8.354;2023-06-22T10:01:07;100774.00;;;30.60
16956;BMP180;8594;52.052;8.354;2023-06-22T10:03:35;100776.00;;;30.50
16956;BMP180;8594;52.052;8.354;2023-06-22T10:06:02;100773.00;;;30.90
16956;BMP180;8594;52.052;8.354;2023-06-22T10:08:30;100779.00;;;30.40
16956;BMP180;8594;52.052;8.354;2023-06-22T10:10:58;100778.00;;;30.50
16956;BMP180;8594;52.052;8.354;2023-06-22T10:13:25;100776.00;;;30.50
16956;BMP180;8594;52.052;8.354;2023-06-22T10:15:52;100785.00;;;30.80
16956;BMP180;8594;52.052;8.354;2023-06-22T10:18:19;100768.00;;;30.90
16956;BMP180;8594;52.052;8.354;2023-06-22T10:20:50;100777.00;;;30.70
16956;BMP180;8594;52.052;8.354;2023-06-22T10:23:17;100781.00;;;30.90
16956;BMP180;8594;52.052;8.354;2023-06-22T10:25:44;100777.00;;;30.80
16956;BMP180;8594;52.052;8.354;2023-06-22T10:28:13;100792.00;;;30.40
16956;BMP180;8594;52.052;8.354;2023-06-22T10:30:40;100794.00;;;30.20
16956;BMP180;8594;52.052;8.354;2023-06-22T10:33:07;100792.00;;;29.40
16956;BMP180;8594;52.052;8.354;2023-06-22T10:35:34;100780.00;;;30.10
16956;BMP180;8594;52.052;8.354;2023-06-22T10:38:03;100782.00;;;29.80
16956;BMP180;8594;52.052;8.354;2023-06-22T10:40:30;100782.00;;;29.70
16956;BMP180;8594;52.052;8.354;2023-06-22T10:42:57;100785.00;;;30.00
16956;BMP180;8594;52.052;8.354;2023-06-22T10:45:26;100777.00;;;30.30
16956;BMP180;8594;52.052;8.354;2023-06-22T10:47:53;100769.00;;;30.20
16956;BMP180;8594;52.052;8.354;2023-06-22T10:50:20;100758.00;;;30.40
16956;BMP180;8594;52.052;8.354;2023-06-22T10:52:49;100758.00;;;30.80
16956;BMP180;8594;52.052;8.354;2023-06-22T10:55:16;100762.00;;;30.90
16956;BMP180;8594;52.052;8.354;2023-06-22T10:57:43;100747.00;;;31.00
16956;BMP180;8594;52.052;8.354;2023-06-22T11:00:14;100744.00;;;30.70
16956;BMP180;8594;52.052;8.354;2023-06-22T11:02:42;100742.00;;;30.60
16956;BMP180;8594;52.052;8.354;2023-06-22T11:05:09;100745.00;;;30.60
16956;BMP180;8594;52.052;8.354;2023-06-22T11:07:37;100732.00;;;30.00
16956;BMP180;8594;52.052;8.354;2023-06-22T11:10:06;100731.00;;;30.20
16956;BMP180;8594;52.052;8.354;2023-06-22T11:12:33;100731.00;;;30.50
16956;BMP180;8594;52.052;8.354;2023-06-22T11:15:00;100740.00;;;30.10
16956;BMP180;8594;52.052;8.354;2023-06-22T11:17:26;100722.00;;;30.00
16956;BMP180;8594;52.052;8.354;2023-06-22T11:19:54;100719.00;;;29.90
16956;BMP180;8594;52.052;8.354;2023-06-22T11:22:21;100714.00;;;29.50
16956;BMP180;8594;52.052;8.354;2023-06-22T11:24:48;100720.00;;;29.80
16956;BMP180;8594;52.052;8.354;2023-06-22T11:27:15;100707.00;;;30.00
16956;BMP180;8594;52.052;8.354;2023-06-22T11:29:42;100706.00;;;30.30
16956;BMP180;8594;52.052;8.354;2023-06-22T11:32:09;100706.00;;;30.50
16956;BMP180;8594;52.052;8.354;2023-06-22T11:34:35;100703.00;;;30.50
16956;BMP180;8594;52.052;8.354;2023-06-22T11:37:04;100695.00;;;30.30
16956;BMP180;8594;52.052;8.354;2023-06-22T11:39:31;100697.00;;;30.10
16956;BMP180;8594;52.052;8.354;2023-06-22T11:41:58;100697.00;;;30.50
16956;BMP180;8594;52.052;8.354;2023-06-22T11:44:24;100685.00;;;30.40
16956;BMP180;8594;52.052;8.354;2023-06-22T11:46:51;100680.00;;;30.20
16956;BMP180;8594;52.052;8.354;2023-06-22T11:49:18;100677.00;;;30.40
16956;BMP180;8594;52.052;8.354;2023-06-22T11:51:45;100670.00;;;30.40
16956;BMP180;8594;52.052;8.354;2023-06-22T11:54:13;100668.00;;;30.20
16956;BMP180;8594;52.052;8.354;2023-06-22T11:56:40;100666.00;;;30.10
16956;BMP180;8594;52.052;8.354;2023-06-22T11:59:07;100655.00;;;30.30
16956;BMP180;8594;52.052;8.354;2023-06-22T12:01:33;100658.00;;;30.30
16956;BMP180;8594;52.052;8.354;2023-06-22T12:04:00;100657.00;;;30.40
16956;BMP180;8594;52.052;8.354;2023-06-22T12:06:31;100660.00;;;30.70
16956;BMP180;8594;52.052;8.354;2023-06-22T12:08:58;100667.00;;;30.50
16956;BMP180;8594;52.052;8.354;2023-06-22T12:11:26;100663.00;;;30.40
16956;BMP180;8594;52.052;8.354;2023-06-22T12:13:53;100666.00;;;30.60
16956;BMP180;8594;52.052;8.354;2023-06-22T12:16:19;100670.00;;;30.30
16956;BMP180;8594;52.052;8.354;2023-06-22T12:18:47;100681.00;;;30.60
16956;BMP180;8594;52.052;8.354;2023-06-22T12:21:14;100681.00;;;30.50
16956;BMP180;8594;52.052;8.354;2023-06-22T12:23:41;100682.00;;;29.80
16956;BMP180;8594;52.052;8.354;2023-06-22T12:26:07;100689.00;;;29.90
16956;BMP180;8594;52.052;8.354;2023-06-22T12:28:36;100703.00;;;29.70
16956;BMP180;8594;52.052;8.354;2023-06-22T12:31:02;100705.00;;;29.80
16956;BMP180;8594;52.052;8.354;2023-06-22T12:33:29;100722.00;;;29.70
16956;BMP180;8594;52.052;8.354;2023-06-22T12:35:57;100730.00;;;29.70
16956;BMP180;8594;52.052;8.354;2023-06-22T12:38:23;100726.00;;;29.50
16956;BMP180;8594;52.052;8.354;2023-06-22T12:40:51;100727.00;;;29.70
16956;BMP180;8594;52.052;8.354;2023-06-22T12:43:18;100726.00;;;30.00
16956;BMP180;8594;52.052;8.354;2023-06-22T12:45:46;100730.00;;;29.80
16956;BMP180;8594;52.052;8.354;2023-06-22T12:48:13;100715.00;;;29.70
16956;BMP180;8594;52.052;8.354;2023-06-22T12:50:39;100723.00;;;29.60
16956;BMP180;8594;52.052;8.354;2023-06-22T12:53:06;100717.00;;;29.70
16956;BMP180;8594;52.052;8.354;2023-06-22T12:55:33;100710.00;;;29.70
16956;BMP180;8594;52.052;8.354;2023-06-22T12:58:00;100709.00;;;29.60
16956;BMP180;8594;52.052;8.354;2023-06-22T13:00:27;100700.00;;;29.70
16956;BMP180;8594;52.052;8.354;2023-06-22T13:02:55;100687.00;;;29.40
16956;BMP180;8594;52.052;8.354;2023-06-22T13:05:22;100673.00;;;29.30
16956;BMP180;8594;52.052;8.354;2023-06-22T13:07:48;100669.00;;;29.10
16956;BMP180;8594;52.052;8.354;2023-06-22T13:10:15;100660.00;;;29.00
16956;BMP180;8594;52.052;8.354;2023-06-22T13:12:42;100660.00;;;29.20
16956;BMP180;8594;52.052;8.354;2023-06-22T13:15:09;100664.00;;;28.70
16956;BMP180;8594;52.052;8.354;2023-06-22T13:17:36;100678.00;;;28.20
16956;BMP180;8594;52.052;8.354;2023-06-22T13:20:06;100682.00;;;27.90
16956;BMP180;8594;52.052;8.354;2023-06-22T13:22:35;100685.00;;;27.80
16956;BMP180;8594;52.052;8.354;2023-06-22T13:25:07;100680.00;;;28.00
16956;BMP180;8594;52.052;8.354;2023-06-22T13:27:37;100686.00;;;28.20
16956;BMP180;8594;52.052;8.354;2023-06-22T13:30:06;100686.00;;;28.10
16956;BMP180;8594;52.052;8.354;2023-06-22T13:32:33;100690.00;;;28.00
16956;BMP180;8594;52.052;8.354;2023-06-22T13:35:00;100688.00;;;27.80
16956;BMP180;8594;52.052;8.354;2023-06-22T13:37:28;100687.00;;;27.90
16956;BMP180;8594;52.052;8.354;2023-06-22T13:39:55;100678.00;;;27.90
16956;BMP180;8594;52.052;8.354;2023-06-22T13:42:24;100679.00;;;28.00
16956;BMP180;8594;52.052;8.354;2023-06-22T13:44:51;100677.00;;;28.00
16956;BMP180;8594;52.052;8.354;2023-06-22T13:47:18;100683.00;;;27.80
16956;BMP180;8594;52.052;8.354;2023-06-22T13:49:45;100682.00;;;27.70
16956;BMP180;8594;52.052;8.354;2023-06-22T13:52:12;100678.00;;;27.70
16956;BMP180;8594;52.052;8.354;2023-06-22T13:54:40;100674.00;;;27.70
16956;BMP180;8594;52.052;8.354;2023-06-22T13:57:07;100669.00;;;27.80
16956;BMP180;8594;52.052;8.354;2023-06-22T13:59:35;100659.00;;;28.00
16956;BMP180;8594;52.052;8.354;2023-06-22T14:02:02;100614.00;;;27.30
16956;BMP180;8594;52.052;8.354;2023-06-22T14:04:29;100552.00;;;26.80
16956;BMP180;8594;52.052;8.354;2023-06-22T14:06:55;100488.00;;;26.30
16956;BMP180;8594;52.052;8.354;2023-06-22T14:09:22;100492.00;;;26.10
16956;BMP180;8594;52.052;8.354;2023-06-22T14:11:50;100525.00;;;26.20
16956;BMP180;8594;52.052;8.354;2023-06-22T14:14:17;100525.00;;;26.20
16956;BMP180;8594;52.052;8.354;2023-06-22T14:16:44;100530.00;;;26.00
16956;BMP180;8594;52.052;8.354;2023-06-22T14:19:11;100540.00;;;25.60
16956;BMP180;8594;52.052;8.354;2023-06-22T14:21:37;100543.00;;;25.70
16956;BMP180;8594;52.052;8.354;2023-06-22T14:24:05;100521.00;;;26.00
16956;BMP180;8594;52.052;8.354;2023-06-22T14:26:31;100496.00;;;25.70
16956;BMP180;8594;52.052;8.354;2023-06-22T14:28:59;100476.00;;;25.50
16956;BMP180;8594;52.052;8.354;2023-06-22T14:31:26;100460.00;;;25.50
16956;BMP180;8594;52.052;8.354;2023-06-22T14:33:53;100450.00;;;25.50
16956;BMP180;8594;52.052;8.354;2023-06-22T14:36:20;100438.00;;;25.40
16956;BMP180;8594;52.052;8.354;2023-06-22T14:38:46;100441.00;;;25.20
16956;BMP180;8594;52.052;8.354;2023-06-22T14:41:14;100438.00;;;25.00
16956;BMP180;8594;52.052;8.354;2023-06-22T14:43:45;100433.00;;;25.20
16956;BMP180;8594;52.052;8.354;2023-06-22T14:46:14;100422.00;;;24.80
16956;BMP180;8594;52.052;8.354;2023-06-22T14:48:41;100424.00;;;24.70
16956;BMP180;8594;52.052;8.354;2023-06-22T14:51:08;100413.00;;;24.70
16956;BMP180;8594;52.052;8.354;2023-06-22T14:53:35;100417.00;;;24.50
16956;BMP180;8594;52.052;8.354;2023-06-22T14:56:03;100424.00;;;24.30
16956;BMP180;8594;52.052;8.354;2023-06-22T14:58:31;100426.00;;;24.50
16956;BMP180;8594;52.052;8.354;2023-06-22T15:00:59;100436.00;;;24.50
16956;BMP180;8594;52.052;8.354;2023-06-22T15:03:27;100448.00;;;24.30
16956;BMP180;8594;52.052;8.354;2023-06-22T15:05:56;100427.00;;;24.50
16956;BMP180;8594;52.052;8.354;2023-06-22T15:08:23;100430.00;;;24.50
16956;BMP180;8594;52.052;8.354;2023-06-22T15:10:51;100441.00;;;24.30
16956;BMP180;8594;52.052;8.354;2023-06-22T15:13:18;100442.00;;;24.50
16956;BMP180;8594;52.052;8.354;2023-06-22T15:15:46;100445.00;;;24.20
16956;BMP180;8594;52.052;8.354;2023-06-22T15:18:14;100438.00;;;24.30
16956;BMP180;8594;52.052;8.354;2023-06-22T15:20:42;100435.00;;;24.70
16956;BMP180;8594;52.052;8.354;2023-06-22T15:23:11;100429.00;;;24.50
16956;BMP180;8594;52.052;8.354;2023-06-22T15:25:38;100420.00;;;24.60
16956;BMP180;8594;52.052;8.354;2023-06-22T15:28:05;100410.00;;;24.50
16956;BMP180;8594;52.052;8.354;2023-06-22T15:30:32;100418.00;;;24.60
16956;BMP180;8594;52.052;8.354;2023-06-22T15:32:59;100405.00;;;24.50
16956;BMP180;8594;52.052;8.354;2023-06-22T15:35:26;100397.00;;;24.50
16956;BMP180;8594;52.052;8.354;2023-06-22T15:37:55;100385.00;;;24.50
16956;BMP180;8594;52.052;8.354;2023-06-22T15:40:22;100401.00;;;24.60
16956;BMP180;8594;52.052;8.354;2023-06-22T15:42:50;100411.00;;;24.70
16956;BMP180;8594;52.052;8.354;2023-06-22T15:45:17;100383.00;;;24.70
16956;BMP180;8594;52.052;8.354;2023-06-22T15:47:44;100371.00;;;24.70
16956;BMP180;8594;52.052;8.354;2023-06-22T15:50:10;100356.00;;;24.70
16956;BMP180;8594;52.052;8.354;2023-06-22T15:52:39;100344.00;;;24.90
16956;BMP180;8594;52.052;8.354;2023-06-22T15:55:08;100342.00;;;24.90
16956;BMP180;8594;52.052;8.354;2023-06-22T15:57:35;100335.00;;;24.90
16956;BMP180;8594;52.052;8.354;2023-06-22T16:00:03;100337.00;;;25.20
16956;BMP180;8594;52.052;8.354;2023-06-22T16:02:31;100313.00;;;25.60
16956;BMP180;8594;52.052;8.354;2023-06-22T16:04:58;100301.00;;;25.40
16956;BMP180;8594;52.052;8.354;2023-06-22T16:07:25;100290.00;;;25.70
16956;BMP180;8594;52.052;8.354;2023-06-22T16:09:52;100286.00;;;25.50
16956;BMP180;8594;52.052;8.354;2023-06-22T16:12:20;100274.00;;;25.60
16956;BMP180;8594;52.052;8.354;2023-06-22T16:14:47;100263.00;;;25.50
16956;BMP180;8594;52.052;8.354;2023-06-22T16:17:14;100245.00;;;25.70
16956;BMP180;8594;52.052;8.354;2023-06-22T16:19:41;100240.00;;;25.80
16956;BMP180;8594;52.052;8.354;2023-06-22T16:22:08;100244.00;;;25.60
16956;BMP180;8594;52.052;8.354;2023-06-22T16:24:35;100257.00;;;25.70
16956;BMP180;8594;52.052;8.354;2023-06-22T16:27:02;100273.00;;;25.50
16956;BMP180;8594;52.052;8.354;2023-06-22T16:29:30;100289.00;;;25.60
16956;BMP180;8594;52.052;8.354;2023-06-22T16:31:57;100294.00;;;25.60
16956;BMP180;8594;52.052;8.354;2023-06-22T16:34:24;100289.00;;;25.40
16956;BMP180;8594;52.052;8.354;2023-06-22T16:36:50;100281.00;;;25.30
16956;BMP180;8594;52.052;8.354;2023-06-22T16:39:17;100285.00;;;25.20
16956;BMP180;8594;52.052;8.354;2023-06-22T16:41:44;100289.00;;;25.10
16956;BMP180;8594;52.052;8.354;2023-06-22T16:44:11;100288.00;;;25.10
16956;BMP180;8594;52.052;8.354;2023-06-22T16:46:39;100279.00;;;25.30
16956;BMP180;8594;52.052;8.354;2023-06-22T16:49:06;100275.00;;;25.30
16956;BMP180;8594;52.052;8.354;2023-06-22T16:51:33;100271.00;;;25.00
16956;BMP180;8594;52.052;8.354;2023-06-22T16:54:00;100278.00;;;25.00
16956;BMP180;8594;52.052;8.354;2023-06-22T16:56:28;100286.00;;;25.30
16956;BMP180;8594;52.052;8.354;2023-06-22T16:58:57;100305.00;;;25.40
16956;BMP180;8594;52.052;8.354;2023-06-22T17:01:25;100335.00;;;25.40
16956;BMP180;8594;52.052;8.354;2023-06-22T17:04:03;100371.00;;;25.30
16956;BMP180;8594;52.052;8.354;2023-06-22T17:06:30;100410.00;;;25.50
16956;BMP180;8594;52.052;8.354;2023-06-22T17:08:59;100431.00;;;25.40
16956;BMP180;8594;52.052;8.354;2023-06-22T17:11:29;100431.00;;;25.40
16956;BMP180;8594;52.052;8.354;2023-06-22T17:13:57;100456.00;;;25.30
16956;BMP180;8594;52.052;8.354;2023-06-22T17:16:29;100456.00;;;25.00
16956;BMP180;8594;52.052;8.354;2023-06-22T17:18:58;100471.00;;;25.10
16956;BMP180;8594;52.052;8.354;2023-06-22T17:21:29;100484.00;;;25.10
16956;BMP180;8594;52.052;8.354;2023-06-22T17:24:01;100456.00;;;25.20
16956;BMP180;8594;52.052;8.354;2023-06-22T17:26:30;100416.00;;;25.20
16956;BMP180;8594;52.052;8.354;2023-06-22T17:28:57;100402.00;;;25.10
16956;BMP180;8594;52.052;8.354;2023-06-22T17:31:36;100387.00;;;24.80
16956;BMP180;8594;52.052;8.354;2023-06-22T17:34:08;100384.00;;;24.60
16956;BMP180;8594;52.052;8.354;2023-06-22T17:36:43;100373.00;;;24.60
16956;BMP180;8594;52.052;8.354;2023-06-22T17:39:11;100359.00;;;24.60
16956;BMP180;8594;52.052;8.354;2023-06-22T17:41:40;100346.00;;;24.60
16956;BMP180;8594;52.052;8.354;2023-06-22T17:44:08;100333.00;;;24.30
16956;BMP180;8594;52.052;8.354;2023-06-22T17:46:38;100311.00;;;24.30
16956;BMP180;8594;52.052;8.354;2023-06-22T17:49:09;100290.00;;;24.30
16956;BMP180;8594;52.052;8.354;2023-06-22T17:51:38;100269.00;;;24.20
16956;BMP180;8594;52.052;8.354;2023-06-22T17:54:05;100286.00;;;24.30
16956;BMP180;8594;52.052;8.354;2023-06-22T17:56:33;100283.00;;;24.20
16956;BMP180;8594;52.052;8.354;2023-06-22T17:59:00;100275.00;;;24.30
16956;BMP180;8594;52.052;8.354;2023-06-22T18:01:32;100281.00;;;24.10
16956;BMP180;8594;52.052;8.354;2023-06-22T18:04:05;100283.00;;;23.80
16956;BMP180;8594;52.052;8.354;2023-06-22T18:06:36;100272.00;;;24.00
16956;BMP180;8594;52.052;8.354;2023-06-22T18:09:05;100255.00;;;23.70
16956;BMP180;8594;52.052;8.354;2023-06-22T18:11:34;100232.00;;;24.00
16956;BMP180;8594;52.052;8.354;2023-06-22T18:14:03;100226.00;;;23.60
16956;BMP180;8594;52.052;8.354;2023-06-22T18:16:32;100224.00;;;23.50
16956;BMP180;8594;52.052;8.354;2023-06-22T18:19:01;100224.00;;;23.50
16956;BMP180;8594;52.052;8.354;2023-06-22T18:21:30;100226.00;;;23.30
16956;BMP180;8594;52.052;8.354;2023-06-22T18:23:59;100218.00;;;23.00
16956;BMP180;8594;52.052;8.354;2023-06-22T18:26:26;100212.00;;;23.20
16956;BMP180;8594;52.052;8.354;2023-06-22T18:28:55;100204.00;;;23.20
16956;BMP180;8594;52.052;8.354;2023-06-22T18:31:24;100199.00;;;22.90
16956;BMP180;8594;52.052;8.354;2023-06-22T18:33:53;100201.00;;;23.20
16956;BMP180;8594;52.052;8.354;2023-06-22T18:36:24;100201.00;;;23.10
16956;BMP180;8594;52.052;8.354;2023-06-22T18:38:53;100191.00;;;23.00
16956;BMP180;8594;52.052;8.354;2023-06-22T18:41:33;100199.00;;;22.90
16956;BMP180;8594;52.052;8.354;2023-06-22T18:44:00;100200.00;;;22.90
16956;BMP180;8594;52.052;8.354;2023-06-22T18:46:35;100195.00;;;23.00
16956;BMP180;8594;52.052;8.354;2023-06-22T18:49:11;100188.00;;;22.90
16956;BMP180;8594;52.052;8.354;2023-06-22T18:51:53;100200.00;;;22.70
16956;BMP180;8594;52.052;8.354;2023-06-22T18:54:23;100199.00;;;22.90
16956;BMP180;8594;52.052;8.354;2023-06-22T18:56:58;100189.00;;;23.00
16956;BMP180;8594;52.052;8.354;2023-06-22T18:59:47;100189.00;;;22.90
16956;BMP180;8594;52.052;8.354;2023-06-22T19:05:06;100191.00;;;23.00
16956;BMP180;8594;52.052;8.354;2023-06-22T19:08:02;100192.00;;;22.70
16956;BMP180;8594;52.052;8.354;2023-06-22T19:10:46;100178.00;;;22.90
16956;BMP180;8594;52.052;8.354;2023-06-22T19:13:50;100190.00;;;22.90
16956;BMP180;8594;52.052;8.354;2023-06-22T19:16:29;100186.00;;;23.00
16956;BMP180;8594;52.052;8.354;2023-06-22T19:19:22;100190.00;;;23.00
16956;BMP180;8594;52.052;8.354;2023-06-22T19:22:00;100177.00;;;22.90
16956;BMP180;8594;52.052;8.354;2023-06-22T19:24:30;100179.00;;;23.20
16956;BMP180;8594;52.052;8.354;2023-06-22T19:26:59;100172.00;;;23.30
16956;BMP180;8594;52.052;8.354;2023-06-22T19:30:02;100176.00;;;23.30
16956;BMP180;8594;52.052;8.354;2023-06-22T19:32:42;100181.00;;;23.20
16956;BMP180;8594;52.052;8.354;2023-06-22T19:35:18;100180.00;;;23.00
16956;BMP180;8594;52.052;8.354;2023-06-22T19:37:59;100171.00;;;23.00
16956;BMP180;8594;52.052;8.354;2023-06-22T19:40:46;100169.00;;;23.00
16956;BMP180;8594;52.052;8.354;2023-06-22T19:46:44;100187.00;;;23.00
16956;BMP180;8594;52.052;8.354;2023-06-22T19:49:49;100192.00;;;23.30
16956;BMP180;8594;52.052;8.354;2023-06-22T19:52:40;100185.00;;;23.30
16956;BMP180;8594;52.052;8.354;2023-06-22T19:55:11;100190.00;;;23.20
16956;BMP180;8594;52.052;8.354;2023-06-22T19:57:46;100182.00;;;23.50
16956;BMP180;8594;52.052;8.354;2023-06-22T20:00:23;100191.00;;;23.40
16956;BMP180;8594;52.052;8.354;2023-06-22T20:03:36;100176.00;;;23.50
16956;BMP180;8594;52.052;8.354;2023-06-22T20:07:09;100191.00;;;23.50
16956;BMP180;8594;52.052;8.354;2023-06-22T20:10:12;100177.00;;;23.30
